sensor_id;sensor_type;location;lat;lon;timestamp;P1;durP1;ratioP1;P2;durP2;ratioP2
6898;SDS011;3488;42.616;23.350;2023-07-30T00:01:08;1.65;;;1.65;;
6898;SDS011;3488;42.616;23.350;2023-07-30T00:03:35;2.10;;;1.98;;
6898;SDS011;3488;42.616;23.350;2023-07-30T00:06:02;2.28;;;2.17;;
6898;SDS011;3488;42.616;23.350;2023-07-30T00:08:29;2.80;;;2.45;;
6898;SDS011;3488;42.616;23.350;2023-07-30T00:10:56;2.50;;;2.40;;
6898;SDS011;3488;42.616;23.350;2023-07-30T00:13:24;2.75;;;2.53;;
6898;SDS011;3488;42.616;23.350;2023-07-30T00:15:52;1.90;;;1.80;;
6898;SDS011;3488;42.616;23.350;2023-07-30T00:18:19;2.47;;;2.38;;
6898;SDS011;3488;42.616;23.350;2023-07-30T00:20:46;2.28;;;1.88;;
6898;SDS011;3488;42.616;23.350;2023-07-30T00:23:13;2.45;;;2.35;;
6898;SDS011;3488;42.616;23.350;2023-07-30T00:25:40;2.28;;;2.17;;
6898;SDS011;3488;42.616;23.350;2023-07-30T00:28:07;2.28;;;1.83;;
6898;SDS011;3488;42.616;23.350;2023-07-30T00:30:36;2.50;;;2.30;;
6898;SDS011;3488;42.616;23.350;2023-07-30T00:33:03;2.17;;;2.08;;
6898;SDS011;3488;42.616;23.350;2023-07-30T00:35:30;2.65;;;2.55;;
6898;SDS011;3488;42.616;23.350;2023-07-30T00:37:57;3.33;;;2.30;;
6898;SDS011;3488;42.616;23.350;2023-07-30T00:40:28;3.03;;;2.65;;
6898;SDS011;3488;42.616;23.350;2023-07-30T00:42:55;2.40;;;2.30;;
6898;SDS011;3488;42.616;23.350;2023-07-30T00:45:22;4.95;;;2.85;;
6898;SDS011;3488;42.616;23.350;2023-07-30T00:47:51;2.42;;;2.30;;
6898;SDS011;3488;42.616;23.350;2023-07-30T00:50:19;1.75;;;1.65;;
6898;SDS011;3488;42.616;23.350;2023-07-30T00:52:46;2.63;;;2.15;;
6898;SDS011;3488;42.616;23.350;2023-07-30T00:55:13;2.15;;;1.95;;
6898;SDS011;3488;42.616;23.350;2023-07-30T00:57:43;2.30;;;2.20;;
6898;SDS011;3488;42.616;23.350;2023-07-30T01:00:13;2.70;;;2.60;;
6898;SDS011;3488;42.616;23.350;2023-07-30T01:02:41;2.80;;;2.60;;
6898;SDS011;3488;42.616;23.350;2023-07-30T01:05:09;2.55;;;2.40;;
6898;SDS011;3488;42.616;23.350;2023-07-30T01:07:36;2.85;;;2.70;;
6898;SDS011;3488;42.616;23.350;2023-07-30T01:10:04;2.65;;;2.45;;
6898;SDS011;3488;42.616;23.350;2023-07-30T01:12:31;3.13;;;2.45;;
6898;SDS011;3488;42.616;23.350;2023-07-30T01:15:01;4.45;;;2.30;;
6898;SDS011;3488;42.616;23.350;2023-07-30T01:17:29;2.70;;;2.50;;
6898;SDS011;3488;42.616;23.350;2023-07-30T01:19:57;2.28;;;2.17;;
6898;SDS011;3488;42.616;23.350;2023-07-30T01:22:26;2.83;;;2.42;;
6898;SDS011;3488;42.616;23.350;2023-07-30T01:24:53;2.35;;;2.17;;
6898;SDS011;3488;42.616;23.350;2023-07-30T01:27:22;2.45;;;2.25;;
6898;SDS011;3488;42.616;23.350;2023-07-30T01:29:52;2.60;;;2.50;;
6898;SDS011;3488;42.616;23.350;2023-07-30T01:32:24;1.70;;;1.60;;
6898;SDS011;3488;42.616;23.350;2023-07-30T01:34:52;2.00;;;1.90;;
6898;SDS011;3488;42.616;23.350;2023-07-30T01:37:20;2.15;;;2.05;;
6898;SDS011;3488;42.616;23.350;2023-07-30T01:39:49;3.30;;;1.98;;
6898;SDS011;3488;42.616;23.350;2023-07-30T01:42:16;2.45;;;2.20;;
6898;SDS011;3488;42.616;23.350;2023-07-30T01:44:44;2.30;;;2.10;;
6898;SDS011;3488;42.616;23.350;2023-07-30T01:47:11;2.85;;;1.67;;
6898;SDS011;3488;42.616;23.350;2023-07-30T01:49:38;1.70;;;1.70;;
6898;SDS011;3488;42.616;23.350;2023-07-30T01:52:05;2.15;;;2.05;;
6898;SDS011;3488;42.616;23.350;2023-07-30T01:54:33;1.95;;;1.85;;
6898;SDS011;3488;42.616;23.350;2023-07-30T01:57:01;2.05;;;1.90;;
6898;SDS011;3488;42.616;23.350;2023-07-30T01:59:29;2.20;;;2.10;;
6898;SDS011;3488;42.616;23.350;2023-07-30T02:01:56;2.88;;;2.42;;
6898;SDS011;3488;42.616;23.350;2023-07-30T02:04:23;2.50;;;2.40;;
6898;SDS011;3488;42.616;23.350;2023-07-30T02:06:50;2.22;;;2.13;;
6898;SDS011;3488;42.616;23.350;2023-07-30T02:09:16;2.58;;;2.35;;
6898;SDS011;3488;42.616;23.350;2023-07-30T02:11:43;3.45;;;2.40;;
6898;SDS011;3488;42.616;23.350;2023-07-30T02:14:12;2.00;;;1.90;;
6898;SDS011;3488;42.616;23.350;2023-07-30T02:16:39;3.55;;;2.47;;
6898;SDS011;3488;42.616;23.350;2023-07-30T02:19:07;2.42;;;1.92;;
6898;SDS011;3488;42.616;23.350;2023-07-30T02:21:34;2.25;;;2.15;;
6898;SDS011;3488;42.616;23.350;2023-07-30T02:24:04;2.20;;;2.10;;
6898;SDS011;3488;42.616;23.350;2023-07-30T02:26:35;2.70;;;2.50;;
6898;SDS011;3488;42.616;23.350;2023-07-30T02:29:02;2.65;;;2.45;;
6898;SDS011;3488;42.616;23.350;2023-07-30T02:31:30;2.75;;;2.30;;
6898;SDS011;3488;42.616;23.350;2023-07-30T02:33:57;2.92;;;2.13;;
6898;SDS011;3488;42.616;23.350;2023-07-30T02:36:24;2.50;;;2.35;;
6898;SDS011;3488;42.616;23.350;2023-07-30T02:38:51;2.05;;;1.95;;
6898;SDS011;3488;42.616;23.350;2023-07-30T02:41:18;2.55;;;2.38;;
6898;SDS011;3488;42.616;23.350;2023-07-30T02:43:45;2.63;;;2.42;;
6898;SDS011;3488;42.616;23.350;2023-07-30T02:46:12;2.40;;;2.22;;
6898;SDS011;3488;42.616;23.350;2023-07-30T02:48:42;2.67;;;2.47;;
6898;SDS011;3488;42.616;23.350;2023-07-30T02:51:09;2.50;;;2.40;;
6898;SDS011;3488;42.616;23.350;2023-07-30T02:53:36;2.58;;;2.47;;
6898;SDS011;3488;42.616;23.350;2023-07-30T02:56:03;2.28;;;2.17;;
6898;SDS011;3488;42.616;23.350;2023-07-30T02:58:30;2.08;;;1.98;;
6898;SDS011;3488;42.616;23.350;2023-07-30T03:01:04;2.05;;;1.95;;
6898;SDS011;3488;42.616;23.350;2023-07-30T03:03:32;2.20;;;2.10;;
6898;SDS011;3488;42.616;23.350;2023-07-30T03:06:00;2.10;;;2.00;;
6898;SDS011;3488;42.616;23.350;2023-07-30T03:08:28;2.42;;;2.33;;
6898;SDS011;3488;42.616;23.350;2023-07-30T03:10:57;2.13;;;2.03;;
6898;SDS011;3488;42.616;23.350;2023-07-30T03:13:25;5.00;;;2.72;;
6898;SDS011;3488;42.616;23.350;2023-07-30T03:15:52;2.67;;;2.47;;
6898;SDS011;3488;42.616;23.350;2023-07-30T03:18:19;2.40;;;2.20;;
6898;SDS011;3488;42.616;23.350;2023-07-30T03:20:46;2.60;;;2.40;;
6898;SDS011;3488;42.616;23.350;2023-07-30T03:23:15;2.60;;;2.40;;
6898;SDS011;3488;42.616;23.350;2023-07-30T03:25:42;2.33;;;2.22;;
6898;SDS011;3488;42.616;23.350;2023-07-30T03:28:09;2.53;;;2.30;;
6898;SDS011;3488;42.616;23.350;2023-07-30T03:30:37;2.45;;;2.00;;
6898;SDS011;3488;42.616;23.350;2023-07-30T03:33:04;2.30;;;2.20;;
6898;SDS011;3488;42.616;23.350;2023-07-30T03:35:31;2.63;;;2.20;;
6898;SDS011;3488;42.616;23.350;2023-07-30T03:37:58;2.33;;;2.22;;
6898;SDS011;3488;42.616;23.350;2023-07-30T03:40:26;2.13;;;2.03;;
6898;SDS011;3488;42.616;23.350;2023-07-30T03:42:54;2.90;;;2.70;;
6898;SDS011;3488;42.616;23.350;2023-07-30T03:45:21;2.40;;;2.30;;
6898;SDS011;3488;42.616;23.350;2023-07-30T03:47:48;4.30;;;2.00;;
6898;SDS011;3488;42.616;23.350;2023-07-30T03:50:16;2.70;;;2.60;;
6898;SDS011;3488;42.616;23.350;2023-07-30T03:52:43;2.45;;;2.35;;
6898;SDS011;3488;42.616;23.350;2023-07-30T03:55:09;1.88;;;1.83;;
6898;SDS011;3488;42.616;23.350;2023-07-30T03:57:38;2.70;;;2.58;;
6898;SDS011;3488;42.616;23.350;2023-07-30T04:00:05;2.72;;;2.53;;
6898;SDS011;3488;42.616;23.350;2023-07-30T04:02:33;3.63;;;2.25;;
6898;SDS011;3488;42.616;23.350;2023-07-30T04:05:00;2.38;;;2.28;;
6898;SDS011;3488;42.616;23.350;2023-07-30T04:07:28;2.10;;;2.00;;
6898;SDS011;3488;42.616;23.350;2023-07-30T04:09:55;2.72;;;2.50;;
6898;SDS011;3488;42.616;23.350;2023-07-30T04:12:23;2.17;;;2.08;;
6898;SDS011;3488;42.616;23.350;2023-07-30T04:14:51;2.13;;;2.03;;
6898;SDS011;3488;42.616;23.350;2023-07-30T04:17:18;2.03;;;1.92;;
6898;SDS011;3488;42.616;23.350;2023-07-30T04:19:45;2.40;;;2.30;;
6898;SDS011;3488;42.616;23.350;2023-07-30T04:22:12;2.47;;;2.38;;
6898;SDS011;3488;42.616;23.350;2023-07-30T04:24:39;2.60;;;2.40;;
6898;SDS011;3488;42.616;23.350;2023-07-30T04:27:06;2.45;;;2.30;;
6898;SDS011;3488;42.616;23.350;2023-07-30T04:29:33;2.22;;;2.13;;
6898;SDS011;3488;42.616;23.350;2023-07-30T04:32:02;4.80;;;2.40;;
6898;SDS011;3488;42.616;23.350;2023-07-30T04:34:29;2.97;;;2.78;;
6898;SDS011;3488;42.616;23.350;2023-07-30T04:36:56;2.95;;;2.85;;
6898;SDS011;3488;42.616;23.350;2023-07-30T04:39:24;2.63;;;2.42;;
6898;SDS011;3488;42.616;23.350;2023-07-30T04:41:51;3.95;;;2.63;;
6898;SDS011;3488;42.616;23.350;2023-07-30T04:44:18;2.90;;;2.72;;
6898;SDS011;3488;42.616;23.350;2023-07-30T04:46:45;2.53;;;2.33;;
6898;SDS011;3488;42.616;23.350;2023-07-30T04:49:14;3.65;;;2.80;;
6898;SDS011;3488;42.616;23.350;2023-07-30T04:51:41;3.03;;;2.80;;
6898;SDS011;3488;42.616;23.350;2023-07-30T04:54:08;3.63;;;2.85;;
6898;SDS011;3488;42.616;23.350;2023-07-30T04:56:35;3.38;;;2.80;;
6898;SDS011;3488;42.616;23.350;2023-07-30T04:59:05;5.22;;;2.92;;
6898;SDS011;3488;42.616;23.350;2023-07-30T05:01:32;6.28;;;3.17;;
6898;SDS011;3488;42.616;23.350;2023-07-30T05:03:59;4.50;;;3.15;;
6898;SDS011;3488;42.616;23.350;2023-07-30T05:06:28;4.00;;;3.20;;
6898;SDS011;3488;42.616;23.350;2023-07-30T05:08:56;5.53;;;3.72;;
6898;SDS011;3488;42.616;23.350;2023-07-30T05:11:22;9.43;;;3.97;;
6898;SDS011;3488;42.616;23.350;2023-07-30T05:13:49;4.47;;;3.65;;
6898;SDS011;3488;42.616;23.350;2023-07-30T05:16:16;8.85;;;3.40;;
6898;SDS011;3488;42.616;23.350;2023-07-30T05:18:44;3.63;;;3.40;;
6898;SDS011;3488;42.616;23.350;2023-07-30T05:21:11;6.18;;;3.28;;
6898;SDS011;3488;42.616;23.350;2023-07-30T05:23:39;4.28;;;3.47;;
6898;SDS011;3488;42.616;23.350;2023-07-30T05:26:06;3.88;;;3.17;;
6898;SDS011;3488;42.616;23.350;2023-07-30T05:28:35;3.13;;;2.92;;
6898;SDS011;3488;42.616;23.350;2023-07-30T05:31:02;3.67;;;3.42;;
6898;SDS011;3488;42.616;23.350;2023-07-30T05:33:29;4.80;;;3.45;;
6898;SDS011;3488;42.616;23.350;2023-07-30T05:35:56;3.28;;;3.05;;
6898;SDS011;3488;42.616;23.350;2023-07-30T05:38:23;3.20;;;3.00;;
6898;SDS011;3488;42.616;23.350;2023-07-30T05:40:51;3.80;;;3.50;;
6898;SDS011;3488;42.616;23.350;2023-07-30T05:43:18;3.45;;;2.95;;
6898;SDS011;3488;42.616;23.350;2023-07-30T05:45:45;4.07;;;3.08;;
6898;SDS011;3488;42.616;23.350;2023-07-30T05:48:12;3.30;;;3.00;;
6898;SDS011;3488;42.616;23.350;2023-07-30T05:50:39;3.22;;;3.00;;
6898;SDS011;3488;42.616;23.350;2023-07-30T05:53:06;3.10;;;2.90;;
6898;SDS011;3488;42.616;23.350;2023-07-30T05:55:33;3.40;;;3.20;;
6898;SDS011;3488;42.616;23.350;2023-07-30T05:58:02;3.75;;;3.17;;
6898;SDS011;3488;42.616;23.350;2023-07-30T06:00:29;3.13;;;2.97;;
6898;SDS011;3488;42.616;23.350;2023-07-30T06:02:57;3.10;;;2.90;;
6898;SDS011;3488;42.616;23.350;2023-07-30T06:05:24;3.22;;;3.03;;
6898;SDS011;3488;42.616;23.350;2023-07-30T06:07:51;2.75;;;2.55;;
6898;SDS011;3488;42.616;23.350;2023-07-30T06:10:18;3.22;;;2.92;;
6898;SDS011;3488;42.616;23.350;2023-07-30T06:12:44;4.75;;;3.30;;
6898;SDS011;3488;42.616;23.350;2023-07-30T06:15:13;5.15;;;3.28;;
6898;SDS011;3488;42.616;23.350;2023-07-30T06:17:40;3.03;;;2.83;;
6898;SDS011;3488;42.616;23.350;2023-07-30T06:20:07;10.90;;;3.10;;
6898;SDS011;3488;42.616;23.350;2023-07-30T06:22:35;2.92;;;2.80;;
6898;SDS011;3488;42.616;23.350;2023-07-30T06:25:03;3.30;;;3.10;;
6898;SDS011;3488;42.616;23.350;2023-07-30T06:27:31;5.68;;;3.30;;
6898;SDS011;3488;42.616;23.350;2023-07-30T06:29:58;3.25;;;3.05;;
6898;SDS011;3488;42.616;23.350;2023-07-30T06:32:27;3.60;;;3.30;;
6898;SDS011;3488;42.616;23.350;2023-07-30T06:34:54;3.38;;;3.13;;
6898;SDS011;3488;42.616;23.350;2023-07-30T06:37:20;2.65;;;2.55;;
6898;SDS011;3488;42.616;23.350;2023-07-30T06:39:48;2.92;;;2.75;;
6898;SDS011;3488;42.616;23.350;2023-07-30T06:42:15;3.20;;;2.97;;
6898;SDS011;3488;42.616;23.350;2023-07-30T06:44:42;2.88;;;2.78;;
6898;SDS011;3488;42.616;23.350;2023-07-30T06:47:09;3.75;;;3.45;;
6898;SDS011;3488;42.616;23.350;2023-07-30T06:49:37;4.88;;;3.15;;
6898;SDS011;3488;42.616;23.350;2023-07-30T06:52:05;3.28;;;3.08;;
6898;SDS011;3488;42.616;23.350;2023-07-30T06:54:32;2.88;;;2.78;;
6898;SDS011;3488;42.616;23.350;2023-07-30T06:56:59;3.20;;;3.05;;
6898;SDS011;3488;42.616;23.350;2023-07-30T06:59:26;2.92;;;2.80;;
6898;SDS011;3488;42.616;23.350;2023-07-30T07:01:53;3.17;;;3.05;;
6898;SDS011;3488;42.616;23.350;2023-07-30T07:04:20;3.35;;;3.15;;
6898;SDS011;3488;42.616;23.350;2023-07-30T07:06:48;3.53;;;3.13;;
6898;SDS011;3488;42.616;23.350;2023-07-30T07:09:15;2.90;;;2.80;;
6898;SDS011;3488;42.616;23.350;2023-07-30T07:11:43;2.83;;;2.72;;
6898;SDS011;3488;42.616;23.350;2023-07-30T07:14:10;3.45;;;3.00;;
6898;SDS011;3488;42.616;23.350;2023-07-30T07:16:37;2.75;;;2.55;;
6898;SDS011;3488;42.616;23.350;2023-07-30T07:19:05;3.13;;;2.67;;
6898;SDS011;3488;42.616;23.350;2023-07-30T07:21:32;3.17;;;2.70;;
6898;SDS011;3488;42.616;23.350;2023-07-30T07:24:00;3.63;;;3.25;;
6898;SDS011;3488;42.616;23.350;2023-07-30T07:26:28;3.15;;;2.95;;
6898;SDS011;3488;42.616;23.350;2023-07-30T07:28:55;2.60;;;2.50;;
6898;SDS011;3488;42.616;23.350;2023-07-30T07:31:22;3.20;;;3.00;;
6898;SDS011;3488;42.616;23.350;2023-07-30T07:33:49;3.05;;;2.88;;
6898;SDS011;3488;42.616;23.350;2023-07-30T07:36:16;5.30;;;3.40;;
6898;SDS011;3488;42.616;23.350;2023-07-30T07:38:43;3.03;;;2.92;;
6898;SDS011;3488;42.616;23.350;2023-07-30T07:41:15;3.75;;;3.25;;
6898;SDS011;3488;42.616;23.350;2023-07-30T07:43:42;3.55;;;3.25;;
6898;SDS011;3488;42.616;23.350;2023-07-30T07:46:10;3.28;;;3.08;;
6898;SDS011;3488;42.616;23.350;2023-07-30T07:48:42;3.75;;;3.38;;
6898;SDS011;3488;42.616;23.350;2023-07-30T07:51:10;3.42;;;3.22;;
6898;SDS011;3488;42.616;23.350;2023-07-30T07:53:38;3.70;;;3.50;;
6898;SDS011;3488;42.616;23.350;2023-07-30T07:56:05;3.55;;;3.35;;
6898;SDS011;3488;42.616;23.350;2023-07-30T07:58:34;3.92;;;3.55;;
6898;SDS011;3488;42.616;23.350;2023-07-30T08:01:02;4.38;;;3.75;;
6898;SDS011;3488;42.616;23.350;2023-07-30T08:03:29;3.30;;;3.10;;
6898;SDS011;3488;42.616;23.350;2023-07-30T08:05:56;3.55;;;3.35;;
6898;SDS011;3488;42.616;23.350;2023-07-30T08:08:24;4.00;;;3.60;;
6898;SDS011;3488;42.616;23.350;2023-07-30T08:10:51;3.95;;;3.63;;
6898;SDS011;3488;42.616;23.350;2023-07-30T08:13:19;8.02;;;3.90;;
6898;SDS011;3488;42.616;23.350;2023-07-30T08:15:48;4.82;;;3.15;;
6898;SDS011;3488;42.616;23.350;2023-07-30T08:18:15;5.72;;;3.33;;
6898;SDS011;3488;42.616;23.350;2023-07-30T08:20:42;3.25;;;2.92;;
6898;SDS011;3488;42.616;23.350;2023-07-30T08:23:09;3.35;;;3.05;;
6898;SDS011;3488;42.616;23.350;2023-07-30T08:25:36;3.20;;;2.88;;
6898;SDS011;3488;42.616;23.350;2023-07-30T08:28:04;3.08;;;2.88;;
6898;SDS011;3488;42.616;23.350;2023-07-30T08:30:31;3.95;;;2.88;;
6898;SDS011;3488;42.616;23.350;2023-07-30T08:33:00;5.05;;;3.00;;
6898;SDS011;3488;42.616;23.350;2023-07-30T08:35:27;3.05;;;2.90;;
6898;SDS011;3488;42.616;23.350;2023-07-30T08:37:54;3.08;;;2.75;;
6898;SDS011;3488;42.616;23.350;2023-07-30T08:40:21;3.17;;;2.97;;
6898;SDS011;3488;42.616;23.350;2023-07-30T08:42:50;3.45;;;3.20;;
6898;SDS011;3488;42.616;23.350;2023-07-30T08:45:17;3.53;;;3.35;;
6898;SDS011;3488;42.616;23.350;2023-07-30T08:47:44;2.88;;;2.63;;
6898;SDS011;3488;42.616;23.350;2023-07-30T08:50:14;3.45;;;3.20;;
6898;SDS011;3488;42.616;23.350;2023-07-30T08:52:41;2.90;;;2.80;;
6898;SDS011;3488;42.616;23.350;2023-07-30T08:55:09;3.88;;;3.55;;
6898;SDS011;3488;42.616;23.350;2023-07-30T08:57:36;3.10;;;2.75;;
6898;SDS011;3488;42.616;23.350;2023-07-30T09:00:05;2.65;;;2.55;;
6898;SDS011;3488;42.616;23.350;2023-07-30T09:02:41;3.30;;;3.10;;
6898;SDS011;3488;42.616;23.350;2023-07-30T09:05:15;3.40;;;3.10;;
6898;SDS011;3488;42.616;23.350;2023-07-30T09:07:45;2.63;;;2.42;;
6898;SDS011;3488;42.616;23.350;2023-07-30T09:10:12;3.15;;;2.95;;
6898;SDS011;3488;42.616;23.350;2023-07-30T09:12:41;3.00;;;2.80;;
6898;SDS011;3488;42.616;23.350;2023-07-30T09:15:08;4.20;;;2.97;;
6898;SDS011;3488;42.616;23.350;2023-07-30T09:17:36;3.13;;;2.75;;
6898;SDS011;3488;42.616;23.350;2023-07-30T09:20:04;6.07;;;3.13;;
6898;SDS011;3488;42.616;23.350;2023-07-30T09:22:34;3.60;;;3.40;;
6898;SDS011;3488;42.616;23.350;2023-07-30T09:25:05;3.53;;;3.20;;
6898;SDS011;3488;42.616;23.350;2023-07-30T09:27:34;3.63;;;3.15;;
6898;SDS011;3488;42.616;23.350;2023-07-30T09:30:02;3.35;;;3.05;;
6898;SDS011;3488;42.616;23.350;2023-07-30T09:32:31;3.50;;;3.28;;
6898;SDS011;3488;42.616;23.350;2023-07-30T09:35:03;3.95;;;3.67;;
6898;SDS011;3488;42.616;23.350;2023-07-30T09:37:31;3.70;;;3.47;;
6898;SDS011;3488;42.616;23.350;2023-07-30T09:40:03;3.88;;;3.58;;
6898;SDS011;3488;42.616;23.350;2023-07-30T09:42:31;3.45;;;3.15;;
6898;SDS011;3488;42.616;23.350;2023-07-30T09:45:00;3.65;;;3.40;;
6898;SDS011;3488;42.616;23.350;2023-07-30T09:47:28;3.80;;;3.42;;
6898;SDS011;3488;42.616;23.350;2023-07-30T09:49:57;3.58;;;3.38;;
6898;SDS011;3488;42.616;23.350;2023-07-30T09:52:24;4.70;;;3.60;;
6898;SDS011;3488;42.616;23.350;2023-07-30T09:54:52;3.40;;;3.10;;
6898;SDS011;3488;42.616;23.350;2023-07-30T09:57:19;3.22;;;3.13;;
6898;SDS011;3488;42.616;23.350;2023-07-30T09:59:47;4.00;;;3.70;;
6898;SDS011;3488;42.616;23.350;2023-07-30T10:02:14;3.78;;;3.50;;
6898;SDS011;3488;42.616;23.350;2023-07-30T10:04:43;3.33;;;3.15;;
6898;SDS011;3488;42.616;23.350;2023-07-30T10:07:16;3.20;;;3.00;;
6898;SDS011;3488;42.616;23.350;2023-07-30T10:09:46;3.25;;;3.05;;
6898;SDS011;3488;42.616;23.350;2023-07-30T10:12:20;3.45;;;3.25;;
6898;SDS011;3488;42.616;23.350;2023-07-30T10:14:50;4.43;;;3.95;;
6898;SDS011;3488;42.616;23.350;2023-07-30T10:17:17;3.22;;;3.03;;
6898;SDS011;3488;42.616;23.350;2023-07-30T10:19:46;3.42;;;3.22;;
6898;SDS011;3488;42.616;23.350;2023-07-30T10:22:22;3.58;;;3.38;;
6898;SDS011;3488;42.616;23.350;2023-07-30T10:24:57;3.67;;;3.45;;
6898;SDS011;3488;42.616;23.350;2023-07-30T10:27:28;2.97;;;2.80;;
6898;SDS011;3488;42.616;23.350;2023-07-30T10:30:09;3.33;;;3.13;;
6898;SDS011;3488;42.616;23.350;2023-07-30T10:32:38;4.05;;;3.65;;
6898;SDS011;3488;42.616;23.350;2023-07-30T10:35:06;3.72;;;3.40;;
6898;SDS011;3488;42.616;23.350;2023-07-30T10:37:33;3.38;;;3.17;;
6898;SDS011;3488;42.616;23.350;2023-07-30T10:40:12;3.78;;;3.58;;
6898;SDS011;3488;42.616;23.350;2023-07-30T10:42:44;3.58;;;3.17;;
6898;SDS011;3488;42.616;23.350;2023-07-30T10:45:11;3.90;;;3.70;;
6898;SDS011;3488;42.616;23.350;2023-07-30T10:47:40;4.75;;;3.72;;
6898;SDS011;3488;42.616;23.350;2023-07-30T10:50:10;3.30;;;3.13;;
6898;SDS011;3488;42.616;23.350;2023-07-30T10:52:38;3.05;;;2.95;;
6898;SDS011;3488;42.616;23.350;2023-07-30T10:55:06;4.00;;;3.70;;
6898;SDS011;3488;42.616;23.350;2023-07-30T10:57:33;3.97;;;3.67;;
6898;SDS011;3488;42.616;23.350;2023-07-30T11:00:02;5.88;;;3.55;;
6898;SDS011;3488;42.616;23.350;2023-07-30T11:02:31;4.90;;;3.58;;
6898;SDS011;3488;42.616;23.350;2023-07-30T11:05:10;3.83;;;3.63;;
6898;SDS011;3488;42.616;23.350;2023-07-30T11:07:37;5.82;;;3.70;;
6898;SDS011;3488;42.616;23.350;2023-07-30T11:10:05;4.03;;;3.72;;
6898;SDS011;3488;42.616;23.350;2023-07-30T11:12:33;3.72;;;3.42;;
6898;SDS011;3488;42.616;23.350;2023-07-30T11:15:00;3.22;;;3.03;;
6898;SDS011;3488;42.616;23.350;2023-07-30T11:17:30;4.43;;;3.63;;
6898;SDS011;3488;42.616;23.350;2023-07-30T11:19:57;3.72;;;3.53;;
6898;SDS011;3488;42.616;23.350;2023-07-30T11:22:30;4.22;;;3.80;;
6898;SDS011;3488;42.616;23.350;2023-07-30T11:24:57;3.38;;;3.15;;
6898;SDS011;3488;42.616;23.350;2023-07-30T11:27:27;3.72;;;3.53;;
6898;SDS011;3488;42.616;23.350;2023-07-30T11:29:54;3.45;;;3.22;;
6898;SDS011;3488;42.616;23.350;2023-07-30T11:32:23;4.03;;;3.17;;
6898;SDS011;3488;42.616;23.350;2023-07-30T11:34:51;4.40;;;4.00;;
6898;SDS011;3488;42.616;23.350;2023-07-30T11:37:19;3.40;;;3.20;;
6898;SDS011;3488;42.616;23.350;2023-07-30T11:39:47;3.67;;;3.38;;
6898;SDS011;3488;42.616;23.350;2023-07-30T11:42:15;3.53;;;3.33;;
6898;SDS011;3488;42.616;23.350;2023-07-30T11:44:42;3.97;;;3.60;;
6898;SDS011;3488;42.616;23.350;2023-07-30T11:47:10;3.25;;;3.15;;
6898;SDS011;3488;42.616;23.350;2023-07-30T11:49:38;3.90;;;3.70;;
6898;SDS011;3488;42.616;23.350;2023-07-30T11:52:06;3.90;;;3.60;;
6898;SDS011;3488;42.616;23.350;2023-07-30T11:54:37;3.83;;;3.63;;
6898;SDS011;3488;42.616;23.350;2023-07-30T11:57:04;4.40;;;4.00;;
6898;SDS011;3488;42.616;23.350;2023-07-30T11:59:32;3.72;;;3.53;;
6898;SDS011;3488;42.616;23.350;2023-07-30T12:01:59;3.67;;;3.38;;
6898;SDS011;3488;42.616;23.350;2023-07-30T12:04:30;3.78;;;3.58;;
6898;SDS011;3488;42.616;23.350;2023-07-30T12:06:59;6.45;;;3.92;;
6898;SDS011;3488;42.616;23.350;2023-07-30T12:09:34;3.90;;;3.65;;
6898;SDS011;3488;42.616;23.350;2023-07-30T12:12:03;3.45;;;3.25;;
6898;SDS011;3488;42.616;23.350;2023-07-30T12:14:42;4.22;;;3.47;;
6898;SDS011;3488;42.616;23.350;2023-07-30T12:17:10;5.13;;;3.60;;
6898;SDS011;3488;42.616;23.350;2023-07-30T12:19:38;4.22;;;3.55;;
6898;SDS011;3488;42.616;23.350;2023-07-30T12:22:07;4.10;;;3.70;;
6898;SDS011;3488;42.616;23.350;2023-07-30T12:24:35;3.42;;;3.22;;
6898;SDS011;3488;42.616;23.350;2023-07-30T12:27:02;3.97;;;3.67;;
6898;SDS011;3488;42.616;23.350;2023-07-30T12:29:30;5.85;;;3.67;;
6898;SDS011;3488;42.616;23.350;2023-07-30T12:31:57;4.93;;;4.00;;
6898;SDS011;3488;42.616;23.350;2023-07-30T12:34:24;3.65;;;3.33;;
6898;SDS011;3488;42.616;23.350;2023-07-30T12:36:51;3.97;;;3.75;;
6898;SDS011;3488;42.616;23.350;2023-07-30T12:39:22;4.50;;;3.80;;
6898;SDS011;3488;42.616;23.350;2023-07-30T12:41:54;3.92;;;3.72;;
6898;SDS011;3488;42.616;23.350;2023-07-30T12:44:23;3.97;;;3.78;;
6898;SDS011;3488;42.616;23.350;2023-07-30T12:47:00;3.67;;;3.47;;
6898;SDS011;3488;42.616;23.350;2023-07-30T12:49:27;3.65;;;3.45;;
6898;SDS011;3488;42.616;23.350;2023-07-30T12:51:55;4.10;;;3.80;;
6898;SDS011;3488;42.616;23.350;2023-07-30T12:54:24;3.97;;;3.78;;
6898;SDS011;3488;42.616;23.350;2023-07-30T12:56:51;3.90;;;3.67;;
6898;SDS011;3488;42.616;23.350;2023-07-30T12:59:19;4.43;;;4.03;;
6898;SDS011;3488;42.616;23.350;2023-07-30T13:01:46;4.05;;;3.85;;
6898;SDS011;3488;42.616;23.350;2023-07-30T13:04:14;4.93;;;3.85;;
6898;SDS011;3488;42.616;23.350;2023-07-30T13:06:42;4.65;;;4.25;;
6898;SDS011;3488;42.616;23.350;2023-07-30T13:09:09;3.60;;;3.40;;
6898;SDS011;3488;42.616;23.350;2023-07-30T13:11:38;3.63;;;3.42;;
6898;SDS011;3488;42.616;23.350;2023-07-30T13:14:05;4.85;;;4.00;;
6898;SDS011;3488;42.616;23.350;2023-07-30T13:16:33;4.20;;;3.90;;
6898;SDS011;3488;42.616;23.350;2023-07-30T13:19:00;4.78;;;4.00;;
6898;SDS011;3488;42.616;23.350;2023-07-30T13:21:28;3.47;;;3.22;;
6898;SDS011;3488;42.616;23.350;2023-07-30T13:23:55;3.50;;;3.22;;
6898;SDS011;3488;42.616;23.350;2023-07-30T13:26:22;3.53;;;3.33;;
6898;SDS011;3488;42.616;23.350;2023-07-30T13:28:51;4.35;;;4.00;;
6898;SDS011;3488;42.616;23.350;2023-07-30T13:31:18;3.67;;;3.47;;
6898;SDS011;3488;42.616;23.350;2023-07-30T13:33:45;4.40;;;3.83;;
6898;SDS011;3488;42.616;23.350;2023-07-30T13:36:12;4.45;;;4.22;;
6898;SDS011;3488;42.616;23.350;2023-07-30T13:38:39;4.00;;;3.80;;
6898;SDS011;3488;42.616;23.350;2023-07-30T13:41:08;4.70;;;4.30;;
6898;SDS011;3488;42.616;23.350;2023-07-30T13:43:36;4.40;;;4.10;;
6898;SDS011;3488;42.616;23.350;2023-07-30T13:46:04;4.40;;;4.10;;
6898;SDS011;3488;42.616;23.350;2023-07-30T13:48:31;4.30;;;4.10;;
6898;SDS011;3488;42.616;23.350;2023-07-30T13:50:58;4.72;;;4.07;;
6898;SDS011;3488;42.616;23.350;2023-07-30T13:53:25;3.97;;;3.67;;
6898;SDS011;3488;42.616;23.350;2023-07-30T13:55:53;4.57;;;4.28;;
6898;SDS011;3488;42.616;23.350;2023-07-30T13:58:20;4.55;;;4.22;;
6898;SDS011;3488;42.616;23.350;2023-07-30T14:00:47;4.38;;;4.07;;
6898;SDS011;3488;42.616;23.350;2023-07-30T14:03:15;4.65;;;4.35;;
6898;SDS011;3488;42.616;23.350;2023-07-30T14:05:42;4.05;;;3.75;;
6898;SDS011;3488;42.616;23.350;2023-07-30T14:08:09;4.65;;;4.25;;
6898;SDS011;3488;42.616;23.350;2023-07-30T14:10:36;5.88;;;3.90;;
6898;SDS011;3488;42.616;23.350;2023-07-30T14:13:04;5.00;;;4.47;;
6898;SDS011;3488;42.616;23.350;2023-07-30T14:15:31;5.35;;;4.50;;
6898;SDS011;3488;42.616;23.350;2023-07-30T14:17:59;4.20;;;4.00;;
6898;SDS011;3488;42.616;23.350;2023-07-30T14:20:28;7.07;;;5.07;;
6898;SDS011;3488;42.616;23.350;2023-07-30T14:22:55;6.50;;;4.15;;
6898;SDS011;3488;42.616;23.350;2023-07-30T14:25:22;4.43;;;4.03;;
6898;SDS011;3488;42.616;23.350;2023-07-30T14:27:50;4.68;;;4.28;;
6898;SDS011;3488;42.616;23.350;2023-07-30T14:30:17;5.18;;;4.70;;
6898;SDS011;3488;42.616;23.350;2023-07-30T14:32:44;4.03;;;3.83;;
6898;SDS011;3488;42.616;23.350;2023-07-30T14:35:11;4.32;;;4.00;;
6898;SDS011;3488;42.616;23.350;2023-07-30T14:37:41;4.38;;;4.13;;
6898;SDS011;3488;42.616;23.350;2023-07-30T14:40:08;4.55;;;4.15;;
6898;SDS011;3488;42.616;23.350;2023-07-30T14:42:36;5.35;;;4.85;;
6898;SDS011;3488;42.616;23.350;2023-07-30T14:45:05;4.55;;;4.25;;
6898;SDS011;3488;42.616;23.350;2023-07-30T14:47:34;5.10;;;4.20;;
6898;SDS011;3488;42.616;23.350;2023-07-30T14:50:01;4.50;;;4.20;;
6898;SDS011;3488;42.616;23.350;2023-07-30T14:52:30;4.63;;;4.32;;
6898;SDS011;3488;42.616;23.350;2023-07-30T14:54:58;7.47;;;4.75;;
6898;SDS011;3488;42.616;23.350;2023-07-30T14:57:26;4.50;;;4.20;;
6898;SDS011;3488;42.616;23.350;2023-07-30T15:00:06;7.32;;;4.75;;
6898;SDS011;3488;42.616;23.350;2023-07-30T15:02:36;4.53;;;4.22;;
6898;SDS011;3488;42.616;23.350;2023-07-30T15:05:03;4.55;;;4.25;;